Savannah, GA

4:38 PM EST on March 06, 2015 (GMT -0500)
Savannah International | Change Station
CLOSE
Current Station
Airport
Location: Savannah,
Elevation: 49 ft
Nearby Weather Stations
Active Advisory: Freeze Warning, Flood Warning

Elev 49 ft 32.13 °N, 81.20 °W | Updated 45 minutes ago

Overcast
Overcast
47 °F
Feels Like 47 °F
N
7
Wind Variable Wind from North

Today
High -- | Low -- °F
--% Chance of Precip.
Yesterday
High -- | Low -- °F
Precip. -- in
6:46 AM 6:26 PM
Full, 99% visible
Pressure 30.38 in
Visibility 10.0 miles
Clouds Overcast 2300 ft
Dew Point 35 °F
Humidity 63%
Rainfall 0.00 in
Snow Depth Not available.
UV 1 out of 12
Pollen 8.00 out of 12
Air Quality Not available.
Flu Activity Not available.
METAR KSAV 062053Z 35006KT 10SM OVC023 08/02 A3037 RMK AO2 SLP285 T00830017 56009

More Conditions Fewer Conditions

Pressure 30.38 in
Visibility 10.0 miles
Clouds Overcast 2300 ft
Dew Point 35 °F
Humidity 63%
Rainfall 0.00 in
Snow Depth Not available.
UV 1 out of 12
Pollen 8.00 out of 12
Air Quality Not available.
Flu Activity Not available.
METAR KSAV 062053Z 35006KT 10SM OVC023 08/02 A3037 RMK AO2 SLP285 T00830017 56009

More Conditions Fewer Conditions

10-Day Weather Forecast

Almanac

Astronomy

Mar. 06, 2015 Rise Set
Actual Time
Civil Twilight
Nautical Twilight
Astronomical Twilight
Moon
Length of Visible Light
Length of Day
Tomorrow will be .
, % of the Moon is Illuminated

Today's Extremes

State Highs State Lows

Community

WunderPhotos

Upload Photos

1,803,406 photos uploaded!

WunderBlogs® & News

Nearby

Air Quality

  Air Quality AQ Index Pollutant
Not available.

Snow Depth

Station Depth Elevation

Earthquake Activity

City Distance Mag. Time & Date
Minimum magnitude displayed is 2.5.

Coastal Water Temperatures

Place Temperature

Nearby Weather Stations

Freeze Warning
Statement as of 3:05 PM EST on March 06, 2015

... Freeze warning remains in effect from 2 am to 9 am EST
Saturday...

* temperatures... lower 30s.

* Freeze duration... 2 to 4 hours with scattered frost.

* Freeze impacts... freezing temperatures could kill sensitive
vegetation and damage unprotected outdoor plumbing.

Precautionary/preparedness actions...

Be prepared to protect sensitive outdoor vegetation and cover
unprotected outdoor plumbing.





Flood Warning
Statement as of 10:29 AM EST on March 06, 2015

The Flood Warning continues for
the Ogeechee river near Eden.
* At 10 am Friday the stage was 12.7 feet.
* Flood stage is 11.0 feet.
* Minor flooding is occurring.
* Forecast, the river will rise to near 12.7 feet by this afternoon
then begin a slow fall.
* At 12.0 feet, water encroaches on some homes along dashers Landing
Road and Yarbrough Landing Road. Davis Landing Road also becomes
impassable.


Lat... Lon 3246 8160 3252 8152 3227 8140 3208 8133
          3206 8143 3223 8150